Aviation Digital Data Service (ADDS)

Output produced by METARs form (1216 UTC 19 January 2019)
found at http://www.aviationweather.gov/metar/data/
 
METAR text: WIOO 191200Z 07003KT 6000 TS FEW011CB BKN012 25/24 Q1008
Conditions at: WIOO (PONTIANAK/SUPADI, ID) observed 1200 UTC 19 January 2019
Temperature: 25.0°C (77°F)
Dewpoint: 24.0°C (75°F) [RH = 94%]
Pressure (altimeter): 29.76 inches Hg (1008.0 mb)
Winds: from the ENE (70 degrees) at 3 MPH (3 knots; 1.5 m/s)
Visibility: 4 miles ( 6 km)
Ceiling: 1200 feet AGL
Clouds: few clouds at 1100 feet AGL
broken clouds at 1200 feet AGL
Weather: TS  (thunderstorm)

METAR text: WIOO 191130Z 02004KT 7000 TS FEW011CB BKN012 25/24 Q1007
Conditions at: WIOO (PONTIANAK/SUPADI, ID) observed 1130 UTC 19 January 2019
Temperature: 25.0°C (77°F)
Dewpoint: 24.0°C (75°F) [RH = 94%]
Pressure (altimeter): 29.73 inches Hg (1007.0 mb)
Winds: from the NNE (20 degrees) at 5 MPH (4 knots; 2.1 m/s)
Visibility: 4 miles ( 7 km)
Ceiling: 1200 feet AGL
Clouds: few clouds at 1100 feet AGL
broken clouds at 1200 feet AGL
Weather: TS  (thunderstorm)

METAR text: WIOO 191100Z 34004KT 8000 TS FEW011CB SCT012 25/24 Q1007
Conditions at: WIOO (PONTIANAK/SUPADI, ID) observed 1100 UTC 19 January 2019
Temperature: 25.0°C (77°F)
Dewpoint: 24.0°C (75°F) [RH = 94%]
Pressure (altimeter): 29.73 inches Hg (1007.0 mb)
Winds: from the NNW (340 degrees) at 5 MPH (4 knots; 2.1 m/s)
Visibility: 5 miles ( 8 km)
Ceiling: at least 12,000 feet AGL
Clouds: few clouds at 1100 feet AGL
scattered clouds at 1200 feet AGL
Weather: TS  (thunderstorm)

METAR text: WIOO 191030Z 33003KT 9999 TS FEW011CB SCT012 25/24 Q1007
Conditions at: WIOO (PONTIANAK/SUPADI, ID) observed 1030 UTC 19 January 2019
Temperature: 25.0°C (77°F)
Dewpoint: 24.0°C (75°F) [RH = 94%]
Pressure (altimeter): 29.73 inches Hg (1007.0 mb)
Winds: from the NNW (330 degrees) at 3 MPH (3 knots; 1.5 m/s)
Visibility: 6 or more miles (10+ km)
Ceiling: at least 12,000 feet AGL
Clouds: few clouds at 1100 feet AGL
scattered clouds at 1200 feet AGL
Weather: TS  (thunderstorm)

METAR text: WIOO 191000Z 32004KT 9999 SCT012 26/24 Q1006
Conditions at: WIOO (PONTIANAK/SUPADI, ID) observed 1000 UTC 19 January 2019
Temperature: 26.0°C (79°F)
Dewpoint: 24.0°C (75°F) [RH = 89%]
Pressure (altimeter): 29.70 inches Hg (1006.0 mb)
Winds: from the NW (320 degrees) at 5 MPH (4 knots; 2.1 m/s)
Visibility: 6 or more miles (10+ km)
Ceiling: at least 12,000 feet AGL
Clouds: scattered clouds at 1200 feet AGL
Weather: no significant weather observed at this time

METAR text: WIOO 190930Z 33003KT 9999 BKN012 26/25 Q1006
Conditions at: WIOO (PONTIANAK/SUPADI, ID) observed 0930 UTC 19 January 2019
Temperature: 26.0°C (79°F)
Dewpoint: 25.0°C (77°F) [RH = 94%]
Pressure (altimeter): 29.70 inches Hg (1006.0 mb)
Winds: from the NNW (330 degrees) at 3 MPH (3 knots; 1.5 m/s)
Visibility: 6 or more miles (10+ km)
Ceiling: 1200 feet AGL
Clouds: broken clouds at 1200 feet AGL
Weather: no significant weather observed at this time

METAR text: WIOO 190900Z 31003KT 9999 BKN011 26/25 Q1006 RETS
Conditions at: WIOO (PONTIANAK/SUPADI, ID) observed 0900 UTC 19 January 2019
Temperature: 26.0°C (79°F)
Dewpoint: 25.0°C (77°F) [RH = 94%]
Pressure (altimeter): 29.70 inches Hg (1006.0 mb)
Winds: from the NW (310 degrees) at 3 MPH (3 knots; 1.5 m/s)
Visibility: 6 or more miles (10+ km)
Ceiling: 1100 feet AGL
Clouds: broken clouds at 1100 feet AGL
Weather: no significant weather observed at this time

METAR text: WIOO 190830Z 00000KT 9999 TS FEW010CB BKN011 26/24 Q1006 RERA
Conditions at: WIOO (PONTIANAK/SUPADI, ID) observed 0830 UTC 19 January 2019
Temperature: 26.0°C (79°F)
Dewpoint: 24.0°C (75°F) [RH = 89%]
Pressure (altimeter): 29.70 inches Hg (1006.0 mb)
Winds: calm
Visibility: 6 or more miles (10+ km)
Ceiling: 1100 feet AGL
Clouds: few clouds at 1000 feet AGL
broken clouds at 1100 feet AGL
Weather: TS  (thunderstorm)

METAR text: WIOO 190800Z 00000KT 6000 -TSRA FEW010CB BKN011 26/24 Q1006
Conditions at: WIOO (PONTIANAK/SUPADI, ID) observed 0800 UTC 19 January 2019
Temperature: 26.0°C (79°F)
Dewpoint: 24.0°C (75°F) [RH = 89%]
Pressure (altimeter): 29.70 inches Hg (1006.0 mb)
Winds: calm
Visibility: 4 miles ( 6 km)
Ceiling: 1100 feet AGL
Clouds: few clouds at 1000 feet AGL
broken clouds at 1100 feet AGL
Weather: -TSRA  (light rain associated with thunderstorm(s))

METAR text: WIOO 190730Z 00000KT 4000 -TSRA FEW010CB BKN011 26/24 Q1006
Conditions at: WIOO (PONTIANAK/SUPADI, ID) observed 0730 UTC 19 January 2019
Temperature: 26.0°C (79°F)
Dewpoint: 24.0°C (75°F) [RH = 89%]
Pressure (altimeter): 29.70 inches Hg (1006.0 mb)
Winds: calm
Visibility: 2.49 miles (4.01 km)
Ceiling: 1100 feet AGL
Clouds: few clouds at 1000 feet AGL
broken clouds at 1100 feet AGL
Weather: -TSRA  (light rain associated with thunderstorm(s))

METAR text: WIOO 190700Z 00000KT 1000 TSRA FEW010CB BKN011 26/25 Q1006
Conditions at: WIOO (PONTIANAK/SUPADI, ID) observed 0700 UTC 19 January 2019
Temperature: 26.0°C (79°F)
Dewpoint: 25.0°C (77°F) [RH = 94%]
Pressure (altimeter): 29.70 inches Hg (1006.0 mb)
Winds: calm
Visibility: 0.62 miles (1.00 km)
Ceiling: 1100 feet AGL
Clouds: few clouds at 1000 feet AGL
broken clouds at 1100 feet AGL
Weather: TSRA  (rain associated with thunderstorm(s))

METAR text: WIOO 190630Z 27010KT 1500 TSRA FEW010CB BKN011 26/24 Q1007
Conditions at: WIOO (PONTIANAK/SUPADI, ID) observed 0630 UTC 19 January 2019
Temperature: 26.0°C (79°F)
Dewpoint: 24.0°C (75°F) [RH = 89%]
Pressure (altimeter): 29.73 inches Hg (1007.0 mb)
Winds: from the W (270 degrees) at 12 MPH (10 knots; 5.1 m/s)
Visibility: 0.93 miles (1.50 km)
Ceiling: 1100 feet AGL
Clouds: few clouds at 1000 feet AGL
broken clouds at 1100 feet AGL
Weather: TSRA  (rain associated with thunderstorm(s))

METAR text: WIOO 190600Z 13010KT 1000 RA FEW010CB BKN011 29/25 Q1007 RMK CB OVER THE FIELD
Conditions at: WIOO (PONTIANAK/SUPADI, ID) observed 0600 UTC 19 January 2019
Temperature: 29.0°C (84°F)
Dewpoint: 25.0°C (77°F) [RH = 79%]
Pressure (altimeter): 29.73 inches Hg (1007.0 mb)
Winds: from the SE (130 degrees) at 12 MPH (10 knots; 5.1 m/s)
Visibility: 0.62 miles (1.00 km)
Ceiling: 1100 feet AGL
Clouds: few clouds at 1000 feet AGL
broken clouds at 1100 feet AGL
Weather: RA  (moderate rain)

METAR text: WIOO 190530Z 11007KT 9999 FEW011CB BKN012 32/25 Q1007 RMK CB TO SW
Conditions at: WIOO (PONTIANAK/SUPADI, ID) observed 0530 UTC 19 January 2019
Temperature: 32.0°C (90°F)
Dewpoint: 25.0°C (77°F) [RH = 67%]
Pressure (altimeter): 29.73 inches Hg (1007.0 mb)
Winds: from the ESE (110 degrees) at 8 MPH (7 knots; 3.6 m/s)
Visibility: 6 or more miles (10+ km)
Ceiling: 1200 feet AGL
Clouds: few clouds at 1100 feet AGL
broken clouds at 1200 feet AGL
Weather: no significant weather observed at this time

METAR text: WIOO 190500Z 04004KT 9999 FEW011CB BKN012 32/26 Q1007 RMK CB TO SW
Conditions at: WIOO (PONTIANAK/SUPADI, ID) observed 0500 UTC 19 January 2019
Temperature: 32.0°C (90°F)
Dewpoint: 26.0°C (79°F) [RH = 71%]
Pressure (altimeter): 29.73 inches Hg (1007.0 mb)
Winds: from the NE (40 degrees) at 5 MPH (4 knots; 2.1 m/s)
Visibility: 6 or more miles (10+ km)
Ceiling: 1200 feet AGL
Clouds: few clouds at 1100 feet AGL
broken clouds at 1200 feet AGL
Weather: no significant weather observed at this time

METAR text: WIOO 190430Z 10005KT 9999 BKN011 31/25 Q1008
Conditions at: WIOO (PONTIANAK/SUPADI, ID) observed 0430 UTC 19 January 2019
Temperature: 31.0°C (88°F)
Dewpoint: 25.0°C (77°F) [RH = 71%]
Pressure (altimeter): 29.76 inches Hg (1008.0 mb)
Winds: from the E (100 degrees) at 6 MPH (5 knots; 2.6 m/s)
Visibility: 6 or more miles (10+ km)
Ceiling: 1100 feet AGL
Clouds: broken clouds at 1100 feet AGL
Weather: no significant weather observed at this time

METAR text: WIOO 190400Z 13005KT 9999 BKN011 30/25 Q1008
Conditions at: WIOO (PONTIANAK/SUPADI, ID) observed 0400 UTC 19 January 2019
Temperature: 30.0°C (86°F)
Dewpoint: 25.0°C (77°F) [RH = 75%]
Pressure (altimeter): 29.76 inches Hg (1008.0 mb)
Winds: from the SE (130 degrees) at 6 MPH (5 knots; 2.6 m/s)
Visibility: 6 or more miles (10+ km)
Ceiling: 1100 feet AGL
Clouds: broken clouds at 1100 feet AGL
Weather: no significant weather observed at this time

METAR text: WIOO 190330Z 06003KT 9999 SCT011 30/25 Q1009
Conditions at: WIOO (PONTIANAK/SUPADI, ID) observed 0330 UTC 19 January 2019
Temperature: 30.0°C (86°F)
Dewpoint: 25.0°C (77°F) [RH = 75%]
Pressure (altimeter): 29.79 inches Hg (1009.0 mb)
Winds: from the ENE (60 degrees) at 3 MPH (3 knots; 1.5 m/s)
Visibility: 6 or more miles (10+ km)
Ceiling: at least 12,000 feet AGL
Clouds: scattered clouds at 1100 feet AGL
Weather: no significant weather observed at this time

METAR text: WIOO 190300Z 00000KT 9999 SCT011 30/25 Q1008
Conditions at: WIOO (PONTIANAK/SUPADI, ID) observed 0300 UTC 19 January 2019
Temperature: 30.0°C (86°F)
Dewpoint: 25.0°C (77°F) [RH = 75%]
Pressure (altimeter): 29.76 inches Hg (1008.0 mb)
Winds: calm
Visibility: 6 or more miles (10+ km)
Ceiling: at least 12,000 feet AGL
Clouds: scattered clouds at 1100 feet AGL
Weather: no significant weather observed at this time

METAR text: WIOO 190230Z 00000KT 9999 FEW012 29/25 Q1009
Conditions at: WIOO (PONTIANAK/SUPADI, ID) observed 0230 UTC 19 January 2019
Temperature: 29.0°C (84°F)
Dewpoint: 25.0°C (77°F) [RH = 79%]
Pressure (altimeter): 29.79 inches Hg (1009.0 mb)
Winds: calm
Visibility: 6 or more miles (10+ km)
Ceiling: at least 12,000 feet AGL
Clouds: few clouds at 1200 feet AGL
Weather: no significant weather observed at this time

METAR text: WIOO 190200Z 05004KT 9999 FEW012 28/25 Q1009
Conditions at: WIOO (PONTIANAK/SUPADI, ID) observed 0200 UTC 19 January 2019
Temperature: 28.0°C (82°F)
Dewpoint: 25.0°C (77°F) [RH = 84%]
Pressure (altimeter): 29.79 inches Hg (1009.0 mb)
Winds: from the NE (50 degrees) at 5 MPH (4 knots; 2.1 m/s)
Visibility: 6 or more miles (10+ km)
Ceiling: at least 12,000 feet AGL
Clouds: few clouds at 1200 feet AGL
Weather: no significant weather observed at this time

METAR text: WIOO 190130Z 04003KT 9999 FEW012 27/25 Q1009
Conditions at: WIOO (PONTIANAK/SUPADI, ID) observed 0130 UTC 19 January 2019
Temperature: 27.0°C (81°F)
Dewpoint: 25.0°C (77°F) [RH = 89%]
Pressure (altimeter): 29.79 inches Hg (1009.0 mb)
Winds: from the NE (40 degrees) at 3 MPH (3 knots; 1.5 m/s)
Visibility: 6 or more miles (10+ km)
Ceiling: at least 12,000 feet AGL
Clouds: few clouds at 1200 feet AGL
Weather: no significant weather observed at this time

METAR text: WIOO 190100Z 04005KT 9999 FEW012 26/24 Q1009
Conditions at: WIOO (PONTIANAK/SUPADI, ID) observed 0100 UTC 19 January 2019
Temperature: 26.0°C (79°F)
Dewpoint: 24.0°C (75°F) [RH = 89%]
Pressure (altimeter): 29.79 inches Hg (1009.0 mb)
Winds: from the NE (40 degrees) at 6 MPH (5 knots; 2.6 m/s)
Visibility: 6 or more miles (10+ km)
Ceiling: at least 12,000 feet AGL
Clouds: few clouds at 1200 feet AGL
Weather: no significant weather observed at this time

METAR text: WIOO 190030Z 05004KT 9999 FEW012 25/24 Q1009
Conditions at: WIOO (PONTIANAK/SUPADI, ID) observed 0030 UTC 19 January 2019
Temperature: 25.0°C (77°F)
Dewpoint: 24.0°C (75°F) [RH = 94%]
Pressure (altimeter): 29.79 inches Hg (1009.0 mb)
Winds: from the NE (50 degrees) at 5 MPH (4 knots; 2.1 m/s)
Visibility: 6 or more miles (10+ km)
Ceiling: at least 12,000 feet AGL
Clouds: few clouds at 1200 feet AGL
Weather: no significant weather observed at this time

METAR text: WIOO 190000Z 07003KT 9999 FEW012 25/24 Q1009
Conditions at: WIOO (PONTIANAK/SUPADI, ID) observed 0000 UTC 19 January 2019
Temperature: 25.0°C (77°F)
Dewpoint: 24.0°C (75°F) [RH = 94%]
Pressure (altimeter): 29.79 inches Hg (1009.0 mb)
Winds: from the ENE (70 degrees) at 3 MPH (3 knots; 1.5 m/s)
Visibility: 6 or more miles (10+ km)
Ceiling: at least 12,000 feet AGL
Clouds: few clouds at 1200 feet AGL
Weather: no significant weather observed at this time

METAR text: WIOO 182330Z 00000KT 9000 FEW012 24/24 Q1008
Conditions at: WIOO (PONTIANAK/SUPADI, ID) observed 2330 UTC 18 January 2019
Temperature: 24.0°C (75°F)
Dewpoint: 24.0°C (75°F) [RH = 100%]
Pressure (altimeter): 29.76 inches Hg (1008.0 mb)
Winds: calm
Visibility: 6 miles ( 9 km)
Ceiling: at least 12,000 feet AGL
Clouds: few clouds at 1200 feet AGL
Weather: no significant weather observed at this time

METAR text: WIOO 182300Z 00000KT 8000 FEW012 24/24 Q1008
Conditions at: WIOO (PONTIANAK/SUPADI, ID) observed 2300 UTC 18 January 2019
Temperature: 24.0°C (75°F)
Dewpoint: 24.0°C (75°F) [RH = 100%]
Pressure (altimeter): 29.76 inches Hg (1008.0 mb)
Winds: calm
Visibility: 5 miles ( 8 km)
Ceiling: at least 12,000 feet AGL
Clouds: few clouds at 1200 feet AGL
Weather: no significant weather observed at this time

METAR text: WIOO 182230Z 00000KT 6000 SCT012 24/23 Q1007
Conditions at: WIOO (PONTIANAK/SUPADI, ID) observed 2230 UTC 18 January 2019
Temperature: 24.0°C (75°F)
Dewpoint: 23.0°C (73°F) [RH = 94%]
Pressure (altimeter): 29.73 inches Hg (1007.0 mb)
Winds: calm
Visibility: 4 miles ( 6 km)
Ceiling: at least 12,000 feet AGL
Clouds: scattered clouds at 1200 feet AGL
Weather: no significant weather observed at this time

METAR text: WIOO 181600Z 00000KT 6000 FEW011CB SCT012 25/24 Q1008
Conditions at: WIOO (PONTIANAK/SUPADI, ID) observed 1600 UTC 18 January 2019
Temperature: 25.0°C (77°F)
Dewpoint: 24.0°C (75°F) [RH = 94%]
Pressure (altimeter): 29.76 inches Hg (1008.0 mb)
Winds: calm
Visibility: 4 miles ( 6 km)
Ceiling: at least 12,000 feet AGL
Clouds: few clouds at 1100 feet AGL
scattered clouds at 1200 feet AGL
Weather: no significant weather observed at this time

METAR text: WIOO 181500Z 00000KT 6000 FEW011CB SCT012 26/24 Q1009
Conditions at: WIOO (PONTIANAK/SUPADI, ID) observed 1500 UTC 18 January 2019
Temperature: 26.0°C (79°F)
Dewpoint: 24.0°C (75°F) [RH = 89%]
Pressure (altimeter): 29.79 inches Hg (1009.0 mb)
Winds: calm
Visibility: 4 miles ( 6 km)
Ceiling: at least 12,000 feet AGL
Clouds: few clouds at 1100 feet AGL
scattered clouds at 1200 feet AGL
Weather: no significant weather observed at this time

METAR text: WIOO 181430Z 00000KT 6000 FEW012CB BKN013 26/25 Q1009
Conditions at: WIOO (PONTIANAK/SUPADI, ID) observed 1430 UTC 18 January 2019
Temperature: 26.0°C (79°F)
Dewpoint: 25.0°C (77°F) [RH = 94%]
Pressure (altimeter): 29.79 inches Hg (1009.0 mb)
Winds: calm
Visibility: 4 miles ( 6 km)
Ceiling: 1300 feet AGL
Clouds: few clouds at 1200 feet AGL
broken clouds at 1300 feet AGL
Weather: no significant weather observed at this time

METAR text: WIOO 181400Z 00000KT 6000 SCT013 26/25 Q1008
Conditions at: WIOO (PONTIANAK/SUPADI, ID) observed 1400 UTC 18 January 2019
Temperature: 26.0°C (79°F)
Dewpoint: 25.0°C (77°F) [RH = 94%]
Pressure (altimeter): 29.76 inches Hg (1008.0 mb)
Winds: calm
Visibility: 4 miles ( 6 km)
Ceiling: at least 12,000 feet AGL
Clouds: scattered clouds at 1300 feet AGL
Weather: no significant weather observed at this time

METAR text: WIOO 181330Z 00000KT 6000 FEW012CB SCT013 26/25 Q1008
Conditions at: WIOO (PONTIANAK/SUPADI, ID) observed 1330 UTC 18 January 2019
Temperature: 26.0°C (79°F)
Dewpoint: 25.0°C (77°F) [RH = 94%]
Pressure (altimeter): 29.76 inches Hg (1008.0 mb)
Winds: calm
Visibility: 4 miles ( 6 km)
Ceiling: at least 12,000 feet AGL
Clouds: few clouds at 1200 feet AGL
scattered clouds at 1300 feet AGL
Weather: no significant weather observed at this time

METAR text: WIOO 181300Z 33004KT 6000 FEW012CB SCT013 27/25 Q1008
Conditions at: WIOO (PONTIANAK/SUPADI, ID) observed 1300 UTC 18 January 2019
Temperature: 27.0°C (81°F)
Dewpoint: 25.0°C (77°F) [RH = 89%]
Pressure (altimeter): 29.76 inches Hg (1008.0 mb)
Winds: from the NNW (330 degrees) at 5 MPH (4 knots; 2.1 m/s)
Visibility: 4 miles ( 6 km)
Ceiling: at least 12,000 feet AGL
Clouds: few clouds at 1200 feet AGL
scattered clouds at 1300 feet AGL
Weather: no significant weather observed at this time

METAR text: WIOO 181230Z 30004KT 6000 SCT012 28/25 Q1008
Conditions at: WIOO (PONTIANAK/SUPADI, ID) observed 1230 UTC 18 January 2019
Temperature: 28.0°C (82°F)
Dewpoint: 25.0°C (77°F) [RH = 84%]
Pressure (altimeter): 29.76 inches Hg (1008.0 mb)
Winds: from the WNW (300 degrees) at 5 MPH (4 knots; 2.1 m/s)
Visibility: 4 miles ( 6 km)
Ceiling: at least 12,000 feet AGL
Clouds: scattered clouds at 1200 feet AGL
Weather: no significant weather observed at this time

METAR text: WIOO 181200Z 29004KT 6000 SCT012 28/25 Q1007
Conditions at: WIOO (PONTIANAK/SUPADI, ID) observed 1200 UTC 18 January 2019
Temperature: 28.0°C (82°F)
Dewpoint: 25.0°C (77°F) [RH = 84%]
Pressure (altimeter): 29.73 inches Hg (1007.0 mb)
Winds: from the WNW (290 degrees) at 5 MPH (4 knots; 2.1 m/s)
Visibility: 4 miles ( 6 km)
Ceiling: at least 12,000 feet AGL
Clouds: scattered clouds at 1200 feet AGL
Weather: no significant weather observed at this time

METAR text: WIOO 181130Z 27004KT 7000 FEW011CB SCT012 28/25 Q1007
Conditions at: WIOO (PONTIANAK/SUPADI, ID) observed 1130 UTC 18 January 2019
Temperature: 28.0°C (82°F)
Dewpoint: 25.0°C (77°F) [RH = 84%]
Pressure (altimeter): 29.73 inches Hg (1007.0 mb)
Winds: from the W (270 degrees) at 5 MPH (4 knots; 2.1 m/s)
Visibility: 4 miles ( 7 km)
Ceiling: at least 12,000 feet AGL
Clouds: few clouds at 1100 feet AGL
scattered clouds at 1200 feet AGL
Weather: no significant weather observed at this time

METAR text: WIOO 181100Z 28004KT 9999 FEW011CB SCT012 29/26 Q1006
Conditions at: WIOO (PONTIANAK/SUPADI, ID) observed 1100 UTC 18 January 2019
Temperature: 29.0°C (84°F)
Dewpoint: 26.0°C (79°F) [RH = 84%]
Pressure (altimeter): 29.70 inches Hg (1006.0 mb)
Winds: from the W (280 degrees) at 5 MPH (4 knots; 2.1 m/s)
Visibility: 6 or more miles (10+ km)
Ceiling: at least 12,000 feet AGL
Clouds: few clouds at 1100 feet AGL
scattered clouds at 1200 feet AGL
Weather: no significant weather observed at this time

METAR text: WIOO 181030Z 29003KT 9999 FEW011CB SCT012 28/26 Q1006
Conditions at: WIOO (PONTIANAK/SUPADI, ID) observed 1030 UTC 18 January 2019
Temperature: 28.0°C (82°F)
Dewpoint: 26.0°C (79°F) [RH = 89%]
Pressure (altimeter): 29.70 inches Hg (1006.0 mb)
Winds: from the WNW (290 degrees) at 3 MPH (3 knots; 1.5 m/s)
Visibility: 6 or more miles (10+ km)
Ceiling: at least 12,000 feet AGL
Clouds: few clouds at 1100 feet AGL
scattered clouds at 1200 feet AGL
Weather: no significant weather observed at this time

METAR text: WIOO 181000Z 27004KT 9999 FEW011CB SCT012 28/26 Q1005
Conditions at: WIOO (PONTIANAK/SUPADI, ID) observed 1000 UTC 18 January 2019
Temperature: 28.0°C (82°F)
Dewpoint: 26.0°C (79°F) [RH = 89%]
Pressure (altimeter): 29.68 inches Hg (1005.0 mb)
Winds: from the W (270 degrees) at 5 MPH (4 knots; 2.1 m/s)
Visibility: 6 or more miles (10+ km)
Ceiling: at least 12,000 feet AGL
Clouds: few clouds at 1100 feet AGL
scattered clouds at 1200 feet AGL
Weather: no significant weather observed at this time

METAR text: WIOO 180930Z 28004KT 9999 FEW011CB SCT012 28/25 Q1005
Conditions at: WIOO (PONTIANAK/SUPADI, ID) observed 0930 UTC 18 January 2019
Temperature: 28.0°C (82°F)
Dewpoint: 25.0°C (77°F) [RH = 84%]
Pressure (altimeter): 29.68 inches Hg (1005.0 mb)
Winds: from the W (280 degrees) at 5 MPH (4 knots; 2.1 m/s)
Visibility: 6 or more miles (10+ km)
Ceiling: at least 12,000 feet AGL
Clouds: few clouds at 1100 feet AGL
scattered clouds at 1200 feet AGL
Weather: no significant weather observed at this time

METAR text: WIOO 180900Z 31004KT 9999 BKN012 28/26 Q1005
Conditions at: WIOO (PONTIANAK/SUPADI, ID) observed 0900 UTC 18 January 2019
Temperature: 28.0°C (82°F)
Dewpoint: 26.0°C (79°F) [RH = 89%]
Pressure (altimeter): 29.68 inches Hg (1005.0 mb)
Winds: from the NW (310 degrees) at 5 MPH (4 knots; 2.1 m/s)
Visibility: 6 or more miles (10+ km)
Ceiling: 1200 feet AGL
Clouds: broken clouds at 1200 feet AGL
Weather: no significant weather observed at this time

METAR text: WIOO 180830Z 31003KT 9999 FEW011CB BKN012 27/24 Q1005 RETS
Conditions at: WIOO (PONTIANAK/SUPADI, ID) observed 0830 UTC 18 January 2019
Temperature: 27.0°C (81°F)
Dewpoint: 24.0°C (75°F) [RH = 84%]
Pressure (altimeter): 29.68 inches Hg (1005.0 mb)
Winds: from the NW (310 degrees) at 3 MPH (3 knots; 1.5 m/s)
Visibility: 6 or more miles (10+ km)
Ceiling: 1200 feet AGL
Clouds: few clouds at 1100 feet AGL
broken clouds at 1200 feet AGL
Weather: no significant weather observed at this time

METAR text: WIOO 180800Z 31003KT 8000 -TSRA FEW010CB BKN011 27/25 Q1005
Conditions at: WIOO (PONTIANAK/SUPADI, ID) observed 0800 UTC 18 January 2019
Temperature: 27.0°C (81°F)
Dewpoint: 25.0°C (77°F) [RH = 89%]
Pressure (altimeter): 29.68 inches Hg (1005.0 mb)
Winds: from the NW (310 degrees) at 3 MPH (3 knots; 1.5 m/s)
Visibility: 5 miles ( 8 km)
Ceiling: 1100 feet AGL
Clouds: few clouds at 1000 feet AGL
broken clouds at 1100 feet AGL
Weather: -TSRA  (light rain associated with thunderstorm(s))

METAR text: WIOO 180730Z 27007KT 4000 TSRA FEW010CB BKN011 28/25 Q1005
Conditions at: WIOO (PONTIANAK/SUPADI, ID) observed 0730 UTC 18 January 2019
Temperature: 28.0°C (82°F)
Dewpoint: 25.0°C (77°F) [RH = 84%]
Pressure (altimeter): 29.68 inches Hg (1005.0 mb)
Winds: from the W (270 degrees) at 8 MPH (7 knots; 3.6 m/s)
Visibility: 2.49 miles (4.01 km)
Ceiling: 1100 feet AGL
Clouds: few clouds at 1000 feet AGL
broken clouds at 1100 feet AGL
Weather: TSRA  (rain associated with thunderstorm(s))

METAR text: WIOO 180700Z 13007KT 8000 -RA FEW010CB BKN011 29/25 Q1006
Conditions at: WIOO (PONTIANAK/SUPADI, ID) observed 0700 UTC 18 January 2019
Temperature: 29.0°C (84°F)
Dewpoint: 25.0°C (77°F) [RH = 79%]
Pressure (altimeter): 29.70 inches Hg (1006.0 mb)
Winds: from the SE (130 degrees) at 8 MPH (7 knots; 3.6 m/s)
Visibility: 5 miles ( 8 km)
Ceiling: 1100 feet AGL
Clouds: few clouds at 1000 feet AGL
broken clouds at 1100 feet AGL
Weather: -RA  (light rain)

METAR text: WIOO 180630Z 18008KT 9999 -RA FEW010CB BKN011 31/24 Q1006
Conditions at: WIOO (PONTIANAK/SUPADI, ID) observed 0630 UTC 18 January 2019
Temperature: 31.0°C (88°F)
Dewpoint: 24.0°C (75°F) [RH = 66%]
Pressure (altimeter): 29.70 inches Hg (1006.0 mb)
Winds: from the S (180 degrees) at 9 MPH (8 knots; 4.1 m/s)
Visibility: 6 or more miles (10+ km)
Ceiling: 1100 feet AGL
Clouds: few clouds at 1000 feet AGL
broken clouds at 1100 feet AGL
Weather: -RA  (light rain)

METAR text: WIOO 180600Z 33004KT 9999 FEW011CB BKN012 32/24 Q1006
Conditions at: WIOO (PONTIANAK/SUPADI, ID) observed 0600 UTC 18 January 2019
Temperature: 32.0°C (90°F)
Dewpoint: 24.0°C (75°F) [RH = 63%]
Pressure (altimeter): 29.70 inches Hg (1006.0 mb)
Winds: from the NNW (330 degrees) at 5 MPH (4 knots; 2.1 m/s)
Visibility: 6 or more miles (10+ km)
Ceiling: 1200 feet AGL
Clouds: few clouds at 1100 feet AGL
broken clouds at 1200 feet AGL
Weather: no significant weather observed at this time

METAR text: WIOO 180530Z 06003KT 9999 FEW011CB BKN012 32/24 Q1007
Conditions at: WIOO (PONTIANAK/SUPADI, ID) observed 0530 UTC 18 January 2019
Temperature: 32.0°C (90°F)
Dewpoint: 24.0°C (75°F) [RH = 63%]
Pressure (altimeter): 29.73 inches Hg (1007.0 mb)
Winds: from the ENE (60 degrees) at 3 MPH (3 knots; 1.5 m/s)
Visibility: 6 or more miles (10+ km)
Ceiling: 1200 feet AGL
Clouds: few clouds at 1100 feet AGL
broken clouds at 1200 feet AGL
Weather: no significant weather observed at this time

METAR text: WIOO 180500Z 00000KT 9999 FEW011CB BKN012 32/24 Q1007
Conditions at: WIOO (PONTIANAK/SUPADI, ID) observed 0500 UTC 18 January 2019
Temperature: 32.0°C (90°F)
Dewpoint: 24.0°C (75°F) [RH = 63%]
Pressure (altimeter): 29.73 inches Hg (1007.0 mb)
Winds: calm
Visibility: 6 or more miles (10+ km)
Ceiling: 1200 feet AGL
Clouds: few clouds at 1100 feet AGL
broken clouds at 1200 feet AGL
Weather: no significant weather observed at this time

METAR text: WIOO 180430Z 01004KT 9999 BKN011 32/24 Q1008
Conditions at: WIOO (PONTIANAK/SUPADI, ID) observed 0430 UTC 18 January 2019
Temperature: 32.0°C (90°F)
Dewpoint: 24.0°C (75°F) [RH = 63%]
Pressure (altimeter): 29.76 inches Hg (1008.0 mb)
Winds: from the N (10 degrees) at 5 MPH (4 knots; 2.1 m/s)
Visibility: 6 or more miles (10+ km)
Ceiling: 1100 feet AGL
Clouds: broken clouds at 1100 feet AGL
Weather: no significant weather observed at this time

METAR text: WIOO 180400Z 00000KT 9999 BKN011 32/24 Q1008
Conditions at: WIOO (PONTIANAK/SUPADI, ID) observed 0400 UTC 18 January 2019
Temperature: 32.0°C (90°F)
Dewpoint: 24.0°C (75°F) [RH = 63%]
Pressure (altimeter): 29.76 inches Hg (1008.0 mb)
Winds: calm
Visibility: 6 or more miles (10+ km)
Ceiling: 1100 feet AGL
Clouds: broken clouds at 1100 feet AGL
Weather: no significant weather observed at this time

METAR text: WIOO 180330Z 12003KT 9999 BKN012 31/24 Q1009
Conditions at: WIOO (PONTIANAK/SUPADI, ID) observed 0330 UTC 18 January 2019
Temperature: 31.0°C (88°F)
Dewpoint: 24.0°C (75°F) [RH = 66%]
Pressure (altimeter): 29.79 inches Hg (1009.0 mb)
Winds: from the ESE (120 degrees) at 3 MPH (3 knots; 1.5 m/s)
Visibility: 6 or more miles (10+ km)
Ceiling: 1200 feet AGL
Clouds: broken clouds at 1200 feet AGL
Weather: no significant weather observed at this time

METAR text: WIOO 180300Z 02003KT 9999 BKN011 30/24 Q1009
Conditions at: WIOO (PONTIANAK/SUPADI, ID) observed 0300 UTC 18 January 2019
Temperature: 30.0°C (86°F)
Dewpoint: 24.0°C (75°F) [RH = 70%]
Pressure (altimeter): 29.79 inches Hg (1009.0 mb)
Winds: from the NNE (20 degrees) at 3 MPH (3 knots; 1.5 m/s)
Visibility: 6 or more miles (10+ km)
Ceiling: 1100 feet AGL
Clouds: broken clouds at 1100 feet AGL
Weather: no significant weather observed at this time

METAR text: WIOO 180230Z 05003KT 9999 SCT012 30/25 Q1009
Conditions at: WIOO (PONTIANAK/SUPADI, ID) observed 0230 UTC 18 January 2019
Temperature: 30.0°C (86°F)
Dewpoint: 25.0°C (77°F) [RH = 75%]
Pressure (altimeter): 29.79 inches Hg (1009.0 mb)
Winds: from the NE (50 degrees) at 3 MPH (3 knots; 1.5 m/s)
Visibility: 6 or more miles (10+ km)
Ceiling: at least 12,000 feet AGL
Clouds: scattered clouds at 1200 feet AGL
Weather: no significant weather observed at this time

METAR text: WIOO 180200Z 00000KT 9999 SCT012 29/25 Q1009
Conditions at: WIOO (PONTIANAK/SUPADI, ID) observed 0200 UTC 18 January 2019
Temperature: 29.0°C (84°F)
Dewpoint: 25.0°C (77°F) [RH = 79%]
Pressure (altimeter): 29.79 inches Hg (1009.0 mb)
Winds: calm
Visibility: 6 or more miles (10+ km)
Ceiling: at least 12,000 feet AGL
Clouds: scattered clouds at 1200 feet AGL
Weather: no significant weather observed at this time

METAR text: WIOO 180130Z 05004KT 9999 FEW012 28/24 Q1009
Conditions at: WIOO (PONTIANAK/SUPADI, ID) observed 0130 UTC 18 January 2019
Temperature: 28.0°C (82°F)
Dewpoint: 24.0°C (75°F) [RH = 79%]
Pressure (altimeter): 29.79 inches Hg (1009.0 mb)
Winds: from the NE (50 degrees) at 5 MPH (4 knots; 2.1 m/s)
Visibility: 6 or more miles (10+ km)
Ceiling: at least 12,000 feet AGL
Clouds: few clouds at 1200 feet AGL
Weather: no significant weather observed at this time

METAR text: WIOO 180100Z 12003KT 9999 FEW012 27/24 Q1009
Conditions at: WIOO (PONTIANAK/SUPADI, ID) observed 0100 UTC 18 January 2019
Temperature: 27.0°C (81°F)
Dewpoint: 24.0°C (75°F) [RH = 84%]
Pressure (altimeter): 29.79 inches Hg (1009.0 mb)
Winds: from the ESE (120 degrees) at 3 MPH (3 knots; 1.5 m/s)
Visibility: 6 or more miles (10+ km)
Ceiling: at least 12,000 feet AGL
Clouds: few clouds at 1200 feet AGL
Weather: no significant weather observed at this time

METAR text: WIOO 180030Z 04003KT 9999 FEW012 25/24 Q1009
Conditions at: WIOO (PONTIANAK/SUPADI, ID) observed 0030 UTC 18 January 2019
Temperature: 25.0°C (77°F)
Dewpoint: 24.0°C (75°F) [RH = 94%]
Pressure (altimeter): 29.79 inches Hg (1009.0 mb)
Winds: from the NE (40 degrees) at 3 MPH (3 knots; 1.5 m/s)
Visibility: 6 or more miles (10+ km)
Ceiling: at least 12,000 feet AGL
Clouds: few clouds at 1200 feet AGL
Weather: no significant weather observed at this time